Time;durP1;ratioP1;P1;durP2;ratioP2;P2;SDS_P1;SDS_P2;PMS_P1;PMS_P2;Temp;Humidity;BMP_temperature;BMP_pressure;BME280_temperature;BME280_humidity;BME280_pressure;Samples;Min_cycle;Max_cycle;Signal;HPM_P1;HPM_P2
2023/11/04 00:00:47;;;;;;;;;;;10.80;90.00;;;;;;5092957;28;19916;-74
2023/11/04 00:03:12;;;;;;;;;;;10.80;90.00;;;;;;5111432;28;20260;-73
2023/11/04 00:05:39;;;;;;;;;;;10.80;90.00;;;;;;5093371;28;19916;-78
2023/11/04 00:08:04;;;;;;;;;;;10.80;89.90;;;;;;5111125;28;19930;-78
2023/11/04 00:10:30;;;;;;;;;;;10.80;89.90;;;;;;5111006;28;20363;-78
2023/11/04 00:12:56;;;;;;;;;;;10.90;90.00;;;;;;5111191;28;19916;-78
2023/11/04 00:15:21;;;;;;;;;;;10.90;90.00;;;;;;5092542;28;20336;-78
2023/11/04 00:17:47;;;;;;;;;;;10.90;89.90;;;;;;5092552;28;19963;-78
2023/11/04 00:20:13;;;;;;;;;;;10.90;89.90;;;;;;5111004;28;19927;-78
2023/11/04 00:22:38;;;;;;;;;;;10.80;89.90;;;;;;5110713;28;19916;-78
2023/11/04 00:25:04;;;;;;;;;;;10.90;90.00;;;;;;5092329;28;19977;-78
2023/11/04 00:27:30;;;;;;;;;;;10.90;90.00;;;;;;5110740;28;20451;-78
2023/11/04 00:29:55;;;;;;;;;;;10.90;90.20;;;;;;5092430;28;19916;-78
2023/11/04 00:32:22;;;;;;;;;;;10.90;90.00;;;;;;5110700;28;19911;-78
2023/11/04 00:34:48;;;;;;;;;;;10.80;90.00;;;;;;5110927;28;19908;-78
2023/11/04 00:37:13;;;;;;;;;;;10.80;90.10;;;;;;5092334;28;20352;-78
2023/11/04 00:39:39;;;;;;;;;;;10.80;90.00;;;;;;5110645;28;19951;-78
2023/11/04 00:42:05;;;;;;;;;;;10.80;90.10;;;;;;5110526;28;19937;-78
2023/11/04 00:44:30;;;;;;;;;;;10.70;90.10;;;;;;5091245;28;19923;-78
2023/11/04 00:46:56;;;;;;;;;;;10.70;90.10;;;;;;5092040;28;19912;-79
2023/11/04 00:49:22;;;;;;;;;;;10.70;90.10;;;;;;5075231;28;19916;-78
2023/11/04 00:51:47;;;;;;;;;;;10.70;90.10;;;;;;5092026;28;19915;-78
2023/11/04 00:54:13;;;;;;;;;;;10.60;90.10;;;;;;5091977;28;19915;-78
2023/11/04 00:56:38;;;;;;;;;;;10.50;90.10;;;;;;5110021;28;20006;-78
2023/11/04 00:59:04;;;;;;;;;;;10.50;90.10;;;;;;5110298;28;19908;-78
2023/11/04 01:01:30;;;;;;;;;;;10.40;90.10;;;;;;5091883;28;19912;-78
2023/11/04 01:03:55;;;;;;;;;;;10.30;90.10;;;;;;5110229;28;19908;-78
2023/11/04 01:06:21;;;;;;;;;;;10.30;90.10;;;;;;5091423;28;20449;-78
2023/11/04 01:08:47;;;;;;;;;;;10.30;90.00;;;;;;5091540;28;19969;-78
2023/11/04 01:11:12;;;;;;;;;;;10.30;90.00;;;;;;5091734;28;19911;-78
2023/11/04 01:13:39;;;;;;;;;;;10.20;90.00;;;;;;5109909;28;19919;-78
2023/11/04 01:16:04;;;;;;;;;;;10.10;89.90;;;;;;5109725;28;19907;-78
2023/11/04 01:18:30;;;;;;;;;;;10.10;89.90;;;;;;5091567;28;19914;-78
2023/11/04 01:20:56;;;;;;;;;;;10.00;89.90;;;;;;5110029;28;20267;-78
2023/11/04 01:23:21;;;;;;;;;;;10.00;89.90;;;;;;5110423;28;19961;-78
2023/11/04 01:25:47;;;;;;;;;;;9.90;89.80;;;;;;5091264;28;19926;-78
2023/11/04 01:28:12;;;;;;;;;;;9.70;89.70;;;;;;5091602;28;20697;-78
2023/11/04 01:30:38;;;;;;;;;;;9.60;89.70;;;;;;5091644;28;19915;-78
2023/11/04 01:33:03;;;;;;;;;;;9.50;89.80;;;;;;5091407;28;19919;-78
2023/11/04 01:35:29;;;;;;;;;;;9.50;89.90;;;;;;5109507;28;19912;-78
2023/11/04 01:37:54;;;;;;;;;;;9.40;89.90;;;;;;5109391;28;19971;-78
2023/11/04 01:40:21;;;;;;;;;;;9.40;89.90;;;;;;5109807;28;19911;-78
2023/11/04 01:42:46;;;;;;;;;;;9.30;89.80;;;;;;5109357;28;19918;-78
2023/11/04 01:45:12;;;;;;;;;;;9.30;89.70;;;;;;5091037;28;19916;-78
2023/11/04 01:47:39;;;;;;;;;;;9.30;89.70;;;;;;5090968;28;19914;-78
2023/11/04 01:50:05;;;;;;;;;;;9.20;89.60;;;;;;5109434;28;19997;-78
2023/11/04 01:52:31;;;;;;;;;;;9.20;89.60;;;;;;5090946;28;19907;-78
2023/11/04 01:54:58;;;;;;;;;;;9.10;89.70;;;;;;5090758;28;19921;-78
2023/11/04 01:57:23;;;;;;;;;;;9.10;89.80;;;;;;5090604;28;20360;-78
2023/11/04 01:59:49;;;;;;;;;;;9.00;89.80;;;;;;5109232;28;20002;-78
2023/11/04 02:02:15;;;;;;;;;;;9.10;89.80;;;;;;5108963;28;19912;-78
2023/11/04 02:04:41;;;;;;;;;;;9.00;89.90;;;;;;5108931;28;19908;-78
2023/11/04 02:07:07;;;;;;;;;;;9.00;89.80;;;;;;5108670;28;19977;-78
2023/11/04 02:09:33;;;;;;;;;;;9.10;89.80;;;;;;5108644;28;19916;-78
2023/11/04 02:11:59;;;;;;;;;;;9.10;89.80;;;;;;5090541;28;20360;-78
2023/11/04 02:14:24;;;;;;;;;;;9.10;89.80;;;;;;5108941;28;19912;-78
2023/11/04 02:16:52;;;;;;;;;;;9.10;89.70;;;;;;5108763;28;20003;-78
2023/11/04 02:19:17;;;;;;;;;;;9.10;89.70;;;;;;5108839;28;19943;-78
2023/11/04 02:21:43;;;;;;;;;;;9.20;89.70;;;;;;5108579;28;20367;-78
2023/11/04 02:24:09;;;;;;;;;;;9.10;89.60;;;;;;5108707;28;19935;-78
2023/11/04 02:26:34;;;;;;;;;;;9.10;89.70;;;;;;5108538;28;19920;-78
2023/11/04 02:29:00;;;;;;;;;;;9.20;89.80;;;;;;5108809;28;19990;-78
2023/11/04 02:31:26;;;;;;;;;;;9.20;89.70;;;;;;5108828;28;19912;-78
2023/11/04 02:33:51;;;;;;;;;;;9.20;89.70;;;;;;5108670;28;19911;-78
2023/11/04 02:36:17;;;;;;;;;;;9.20;89.70;;;;;;5090150;28;19912;-78
2023/11/04 02:38:43;;;;;;;;;;;9.20;89.70;;;;;;5090250;28;20298;-78
2023/11/04 02:41:09;;;;;;;;;;;9.10;89.70;;;;;;5090139;28;19912;-78
2023/11/04 02:43:35;;;;;;;;;;;9.00;89.90;;;;;;5108406;28;19923;-78
2023/11/04 02:46:00;;;;;;;;;;;9.00;90.00;;;;;;5089910;28;19947;-78
2023/11/04 02:48:26;;;;;;;;;;;9.00;90.00;;;;;;5108488;28;19912;-78
2023/11/04 02:50:51;;;;;;;;;;;9.00;90.10;;;;;;5108341;28;20325;-78
2023/11/04 02:53:17;;;;;;;;;;;9.00;90.00;;;;;;5108379;28;19911;-78
2023/11/04 02:55:42;;;;;;;;;;;9.00;90.00;;;;;;5108363;28;19955;-78
2023/11/04 02:58:08;;;;;;;;;;;9.00;90.00;;;;;;5090664;28;20339;-78
2023/11/04 03:00:34;;;;;;;;;;;9.00;90.00;;;;;;5108514;28;19955;-78
2023/11/04 03:02:59;;;;;;;;;;;9.00;90.00;;;;;;5089973;28;19908;-72
2023/11/04 03:05:25;;;;;;;;;;;9.00;90.00;;;;;;5089762;28;20279;-72
2023/11/04 03:07:50;;;;;;;;;;;9.00;90.10;;;;;;5108511;28;20367;-72
2023/11/04 03:10:16;;;;;;;;;;;9.00;90.10;;;;;;5094121;28;19912;-72
2023/11/04 03:12:42;;;;;;;;;;;9.00;90.00;;;;;;5094015;28;19911;-72
2023/11/04 03:15:07;;;;;;;;;;;9.00;90.00;;;;;;5112208;28;19912;-72
2023/11/04 03:17:34;;;;;;;;;;;9.00;90.00;;;;;;5093649;28;19919;-72
2023/11/04 03:20:00;;;;;;;;;;;9.00;90.00;;;;;;5112209;28;19912;-71
2023/11/04 03:22:25;;;;;;;;;;;9.00;90.10;;;;;;5112157;28;19915;-72
2023/11/04 03:24:51;;;;;;;;;;;9.00;90.10;;;;;;5111934;28;19950;-72
2023/11/04 03:27:17;;;;;;;;;;;9.00;90.10;;;;;;5111940;28;20356;-72
2023/11/04 03:29:42;;;;;;;;;;;9.00;90.10;;;;;;5111936;28;19989;-72
2023/11/04 03:32:09;;;;;;;;;;;9.10;90.10;;;;;;5111993;28;19908;-72
2023/11/04 03:34:35;;;;;;;;;;;9.10;90.10;;;;;;5111894;28;20052;-72
2023/11/04 03:37:02;;;;;;;;;;;9.10;90.10;;;;;;5093493;28;20010;-72
2023/11/04 03:39:32;;;;;;;;;;;9.10;90.10;;;;;;5111709;28;20442;-72
2023/11/04 03:41:58;;;;;;;;;;;9.10;90.00;;;;;;5111605;28;19912;-72
2023/11/04 03:44:24;;;;;;;;;;;9.20;90.10;;;;;;5111471;28;20289;-72
2023/11/04 03:46:49;;;;;;;;;;;9.20;90.10;;;;;;5111481;28;20014;-72
2023/11/04 03:49:16;;;;;;;;;;;9.30;90.10;;;;;;5111648;28;19922;-72
2023/11/04 03:51:42;;;;;;;;;;;9.30;90.10;;;;;;5111625;28;20265;-72
2023/11/04 03:54:07;;;;;;;;;;;9.20;90.00;;;;;;5093113;28;20288;-72
2023/11/04 03:56:33;;;;;;;;;;;9.20;90.10;;;;;;5111941;28;19917;-72
2023/11/04 03:58:58;;;;;;;;;;;9.20;90.10;;;;;;5111381;28;20367;-72
2023/11/04 04:01:24;;;;;;;;;;;9.20;90.10;;;;;;5093159;28;19919;-72
2023/11/04 04:03:51;;;;;;;;;;;9.20;90.20;;;;;;5111272;28;19912;-72
2023/11/04 04:06:17;;;;;;;;;;;9.20;90.20;;;;;;5092545;28;19989;-72
2023/11/04 04:08:43;;;;;;;;;;;9.30;90.20;;;;;;5111273;28;20629;-72
2023/11/04 04:11:09;;;;;;;;;;;9.30;90.20;;;;;;5111099;28;19908;-72
2023/11/04 04:13:35;;;;;;;;;;;9.40;90.20;;;;;;5092768;28;20368;-72
2023/11/04 04:16:01;;;;;;;;;;;9.40;90.20;;;;;;5110927;28;19908;-71
2023/11/04 04:18:26;;;;;;;;;;;9.40;90.20;;;;;;5092729;28;19912;-71
2023/11/04 04:20:52;;;;;;;;;;;9.50;90.20;;;;;;5109539;28;19965;-72
2023/11/04 04:23:17;;;;;;;;;;;9.60;90.10;;;;;;5110921;28;19969;-71
2023/11/04 04:25:43;;;;;;;;;;;9.70;90.00;;;;;;5092460;28;19926;-72
2023/11/04 04:28:09;;;;;;;;;;;9.60;90.00;;;;;;5110782;28;20374;-72
2023/11/04 04:30:34;;;;;;;;;;;9.70;90.00;;;;;;5110714;28;19918;-72
2023/11/04 04:33:32;;;;;;;;;;;9.70;90.00;;;;;;5111166;28;19912;-72
2023/11/04 04:35:49;;;;;;;;;;;9.70;90.00;;;;;;5089169;28;19911;-72
2023/11/04 04:38:19;;;;;;;;;;;9.70;90.00;;;;;;5110608;28;20010;-72
2023/11/04 04:41:06;;;;;;;;;;;9.60;90.00;;;;;;5092387;28;19998;-72
2023/11/04 04:43:30;;;;;;;;;;;9.60;90.00;;;;;;5109828;28;19918;-72
2023/11/04 04:45:56;;;;;;;;;;;9.50;90.10;;;;;;5091887;28;20014;-72
2023/11/04 04:48:22;;;;;;;;;;;9.40;90.10;;;;;;5092025;28;20342;-71
2023/11/04 04:50:48;;;;;;;;;;;9.30;90.20;;;;;;5110459;28;19911;-72
2023/11/04 04:53:15;;;;;;;;;;;9.30;90.20;;;;;;5092029;28;19912;-72
2023/11/04 04:55:40;;;;;;;;;;;9.30;90.30;;;;;;5110155;28;19964;-72
2023/11/04 04:58:06;;;;;;;;;;;9.40;90.30;;;;;;5110185;28;20308;-72
2023/11/04 05:00:32;;;;;;;;;;;9.50;90.20;;;;;;5110138;28;20360;-72
2023/11/04 05:02:59;;;;;;;;;;;9.50;90.10;;;;;;5110124;28;19919;-72
2023/11/04 05:05:24;;;;;;;;;;;9.50;90.20;;;;;;5109937;28;19915;-72
2023/11/04 05:07:50;;;;;;;;;;;9.60;90.20;;;;;;5109666;28;20291;-71
2023/11/04 05:10:15;;;;;;;;;;;9.60;90.10;;;;;;5091834;28;19915;-72
2023/11/04 05:12:41;;;;;;;;;;;9.60;90.10;;;;;;5109895;28;19951;-72
2023/11/04 05:15:07;;;;;;;;;;;9.60;90.10;;;;;;5109928;28;19988;-72
2023/11/04 05:17:33;;;;;;;;;;;9.50;90.10;;;;;;5109718;28;19968;-72
2023/11/04 05:19:58;;;;;;;;;;;9.40;90.20;;;;;;5109805;28;20292;-72
2023/11/04 05:22:24;;;;;;;;;;;9.40;90.20;;;;;;5074821;28;19912;-72
2023/11/04 05:24:50;;;;;;;;;;;9.30;90.20;;;;;;5109755;28;19919;-71
2023/11/04 05:27:15;;;;;;;;;;;9.30;90.30;;;;;;5109582;28;19923;-72
2023/11/04 05:29:41;;;;;;;;;;;9.30;90.30;;;;;;5091405;28;19912;-72
2023/11/04 05:32:07;;;;;;;;;;;9.20;90.30;;;;;;5109062;28;20398;-71
2023/11/04 05:34:33;;;;;;;;;;;9.30;90.30;;;;;;5109509;28;19922;-72
2023/11/04 05:36:59;;;;;;;;;;;9.30;90.30;;;;;;5109411;28;19998;-72
2023/11/04 05:39:25;;;;;;;;;;;9.30;90.30;;;;;;5109741;28;20371;-72
2023/11/04 05:41:51;;;;;;;;;;;9.30;90.20;;;;;;5091203;28;19923;-72
2023/11/04 05:44:16;;;;;;;;;;;9.40;90.20;;;;;;5109113;28;19912;-72
2023/11/04 05:46:45;;;;;;;;;;;9.30;90.20;;;;;;5090839;28;20015;-72
2023/11/04 05:49:11;;;;;;;;;;;9.40;90.20;;;;;;5109202;28;19912;-72
2023/11/04 05:51:37;;;;;;;;;;;9.40;90.30;;;;;;5109209;28;20011;-72
2023/11/04 05:54:02;;;;;;;;;;;9.50;90.20;;;;;;5091342;28;19923;-72
2023/11/04 05:56:28;;;;;;;;;;;9.50;90.20;;;;;;5108850;28;19912;-72
2023/11/04 05:58:53;;;;;;;;;;;9.50;90.10;;;;;;5108947;28;19918;-72
2023/11/04 06:01:25;;;;;;;;;;;9.60;90.20;;;;;;5108842;28;19916;-73
2023/11/04 06:03:54;;;;;;;;;;;9.60;90.20;;;;;;5090437;28;19916;-72
2023/11/04 06:06:20;;;;;;;;;;;9.60;90.20;;;;;;5090898;28;20023;-73
2023/11/04 06:08:46;;;;;;;;;;;9.60;90.20;;;;;;5108834;28;19947;-72
2023/11/04 06:11:12;;;;;;;;;;;9.60;90.20;;;;;;5108785;28;19915;-72
2023/11/04 06:13:37;;;;;;;;;;;9.60;90.20;;;;;;5108803;28;20268;-72
2023/11/04 06:16:03;;;;;;;;;;;9.60;90.20;;;;;;5108578;28;19970;-72
2023/11/04 06:18:28;;;;;;;;;;;9.60;90.20;;;;;;5090487;28;19912;-72
2023/11/04 06:20:56;;;;;;;;;;;9.60;90.20;;;;;;5108695;28;19911;-71
2023/11/04 06:23:21;;;;;;;;;;;9.60;90.20;;;;;;5108738;28;19911;-72
2023/11/04 06:25:47;;;;;;;;;;;9.60;90.20;;;;;;5108452;28;19922;-72
2023/11/04 06:28:12;;;;;;;;;;;9.70;90.20;;;;;;5108504;28;19969;-72
2023/11/04 06:30:38;;;;;;;;;;;9.60;90.20;;;;;;5108394;28;19912;-72
2023/11/04 06:33:03;;;;;;;;;;;9.60;90.20;;;;;;5090297;28;20003;-72
2023/11/04 06:35:29;;;;;;;;;;;9.60;90.30;;;;;;5108411;28;19907;-72
2023/11/04 06:37:55;;;;;;;;;;;9.60;90.20;;;;;;5108378;28;20286;-72
2023/11/04 06:40:20;;;;;;;;;;;9.60;90.30;;;;;;5108535;28;19907;-72
2023/11/04 06:42:46;;;;;;;;;;;9.60;90.30;;;;;;5107696;28;19943;-72
2023/11/04 06:45:11;;;;;;;;;;;9.60;90.30;;;;;;5089974;28;20184;-67
2023/11/04 06:47:37;;;;;;;;;;;9.70;90.30;;;;;;5108190;28;19911;-72
2023/11/04 06:50:04;;;;;;;;;;;9.80;90.20;;;;;;5108360;28;19920;-72
2023/11/04 06:52:31;;;;;;;;;;;9.80;90.20;;;;;;5090084;28;20283;-72
2023/11/04 06:54:57;;;;;;;;;;;9.80;90.10;;;;;;5108400;28;20065;-72
2023/11/04 06:57:22;;;;;;;;;;;9.70;90.10;;;;;;5108192;28;19960;-72
2023/11/04 06:59:48;;;;;;;;;;;9.70;90.10;;;;;;5108272;28;19911;-72
2023/11/04 07:02:13;;;;;;;;;;;9.60;90.00;;;;;;5073125;28;19915;-72
2023/11/04 07:04:40;;;;;;;;;;;9.60;90.00;;;;;;5089869;28;20366;-74
2023/11/04 07:07:06;;;;;;;;;;;9.50;90.00;;;;;;5107755;28;19923;-74
2023/11/04 07:09:33;;;;;;;;;;;9.50;90.00;;;;;;5108316;28;19938;-74
2023/11/04 07:11:59;;;;;;;;;;;9.30;90.00;;;;;;5108347;28;19919;-74
2023/11/04 07:14:24;;;;;;;;;;;9.20;90.10;;;;;;5108200;28;19912;-74
2023/11/04 07:16:50;;;;;;;;;;;9.10;90.20;;;;;;5108134;28;19915;-73
2023/11/04 07:19:15;;;;;;;;;;;9.00;90.30;;;;;;5108122;28;19914;-74
2023/11/04 07:21:42;;;;;;;;;;;8.90;90.30;;;;;;5108069;28;20355;-74
2023/11/04 07:24:08;;;;;;;;;;;8.90;90.40;;;;;;5108040;28;19915;-73
2023/11/04 07:26:34;;;;;;;;;;;9.00;90.40;;;;;;5107968;28;19969;-74
2023/11/04 07:29:00;;;;;;;;;;;9.00;90.40;;;;;;5107840;28;19912;-74
2023/11/04 07:31:26;;;;;;;;;;;9.00;90.30;;;;;;5089500;28;19994;-74
2023/11/04 07:33:52;;;;;;;;;;;9.00;90.30;;;;;;5107884;28;20339;-74
2023/11/04 07:36:24;;;;;;;;;;;9.00;90.40;;;;;;5089561;28;20018;-74
2023/11/04 07:38:51;;;;;;;;;;;9.00;90.40;;;;;;5107965;28;19951;-74
2023/11/04 07:41:16;;;;;;;;;;;9.00;90.40;;;;;;5108037;28;19908;-74
2023/11/04 07:43:42;;;;;;;;;;;9.00;90.40;;;;;;5089517;28;20245;-72
2023/11/04 07:46:07;;;;;;;;;;;9.10;90.40;;;;;;5107736;28;19916;-72
2023/11/04 07:48:33;;;;;;;;;;;9.20;90.30;;;;;;5107800;28;20406;-72
2023/11/04 07:50:58;;;;;;;;;;;9.20;90.30;;;;;;5108327;28;19919;-72
2023/11/04 07:53:24;;;;;;;;;;;9.20;90.20;;;;;;5089434;28;20004;-72
2023/11/04 07:55:49;;;;;;;;;;;9.20;90.20;;;;;;5111162;28;20368;-72
2023/11/04 07:58:16;;;;;;;;;;;9.10;90.30;;;;;;5111149;28;19916;-72
2023/11/04 08:00:43;;;;;;;;;;;9.10;90.30;;;;;;5093153;28;19972;-73
2023/11/04 08:03:08;;;;;;;;;;;9.10;90.30;;;;;;5092940;28;20257;-72
2023/11/04 08:05:36;;;;;;;;;;;9.10;90.30;;;;;;5092630;28;19923;-72
2023/11/04 08:08:02;;;;;;;;;;;9.20;90.30;;;;;;5110969;28;19924;-72
2023/11/04 08:10:27;;;;;;;;;;;9.20;90.30;;;;;;5111008;28;19912;-73
2023/11/04 08:12:53;;;;;;;;;;;9.10;90.30;;;;;;5111039;28;19961;-72
2023/11/04 08:15:19;;;;;;;;;;;9.10;90.30;;;;;;5110610;28;19923;-72
2023/11/04 08:17:44;;;;;;;;;;;9.10;90.30;;;;;;5092775;28;19965;-72
2023/11/04 08:20:11;;;;;;;;;;;9.10;90.30;;;;;;5110973;28;19934;-72
2023/11/04 08:22:38;;;;;;;;;;;9.10;90.30;;;;;;5110769;28;19976;-72
2023/11/04 08:25:06;;;;;;;;;;;9.20;90.30;;;;;;5110712;28;20363;-74
2023/11/04 08:27:31;;;;;;;;;;;9.20;90.30;;;;;;5110547;28;19916;-74
2023/11/04 08:29:57;;;;;;;;;;;9.20;90.30;;;;;;5110501;28;19908;-73
2023/11/04 08:32:23;;;;;;;;;;;9.30;90.30;;;;;;5092348;28;20563;-74
2023/11/04 08:34:48;;;;;;;;;;;9.30;90.30;;;;;;5110667;28;19908;-74
2023/11/04 08:37:14;;;;;;;;;;;9.30;90.30;;;;;;5092312;28;20007;-74
2023/11/04 08:39:39;;;;;;;;;;;9.40;90.30;;;;;;5110742;28;20020;-72
2023/11/04 08:42:06;;;;;;;;;;;9.40;90.30;;;;;;5092242;28;19984;-72
2023/11/04 08:44:32;;;;;;;;;;;9.50;90.20;;;;;;5110185;28;19916;-72
2023/11/04 08:46:57;;;;;;;;;;;9.50;90.20;;;;;;5109970;28;19912;-72
2023/11/04 08:49:23;;;;;;;;;;;9.60;90.20;;;;;;5110120;28;19921;-72
2023/11/04 08:51:49;;;;;;;;;;;9.60;90.20;;;;;;5110120;28;19912;-72
2023/11/04 08:54:14;;;;;;;;;;;9.60;90.30;;;;;;5091880;28;20315;-72
2023/11/04 08:56:42;;;;;;;;;;;9.70;90.20;;;;;;5074721;28;19958;-73
2023/11/04 08:59:08;;;;;;;;;;;9.70;90.20;;;;;;5110079;28;19953;-73
2023/11/04 09:01:34;;;;;;;;;;;9.70;90.30;;;;;;5109938;28;19958;-73
2023/11/04 09:04:00;;;;;;;;;;;9.70;90.30;;;;;;5091189;28;20390;-72
2023/11/04 09:06:26;;;;;;;;;;;9.80;90.50;;;;;;5108547;28;19974;-73
2023/11/04 09:08:52;;;;;;;;;;;9.90;90.40;;;;;;5110148;28;19915;-74
2023/11/04 09:11:17;;;;;;;;;;;9.90;90.30;;;;;;5091360;28;19918;-72
2023/11/04 09:13:43;;;;;;;;;;;9.90;90.30;;;;;;5109514;28;19947;-73
2023/11/04 09:16:09;;;;;;;;;;;10.00;90.30;;;;;;5109530;28;19959;-73
2023/11/04 09:18:37;;;;;;;;;;;10.00;90.30;;;;;;5091231;28;19918;-73
2023/11/04 09:21:06;;;;;;;;;;;10.00;90.30;;;;;;5074760;28;19941;-73
2023/11/04 09:23:31;;;;;;;;;;;10.10;90.20;;;;;;5109520;28;19912;-73
2023/11/04 09:25:57;;;;;;;;;;;10.10;90.20;;;;;;5108772;28;19931;-73
2023/11/04 09:28:23;;;;;;;;;;;10.10;90.20;;;;;;5090874;28;19915;-73
2023/11/04 09:30:49;;;;;;;;;;;10.20;90.20;;;;;;5109764;28;19937;-73
2023/11/04 09:33:15;;;;;;;;;;;10.20;90.30;;;;;;5091128;28;19912;-73
2023/11/04 09:35:41;;;;;;;;;;;10.30;90.30;;;;;;5109246;28;19919;-73
2023/11/04 09:38:06;;;;;;;;;;;10.30;90.40;;;;;;5109121;28;19977;-73
2023/11/04 09:40:32;;;;;;;;;;;10.40;90.40;;;;;;5090749;28;20308;-73
2023/11/04 09:42:58;;;;;;;;;;;10.50;90.40;;;;;;5109216;28;19908;-73
2023/11/04 09:45:24;;;;;;;;;;;10.60;90.40;;;;;;5090660;28;19919;-73
2023/11/04 09:47:50;;;;;;;;;;;10.60;90.40;;;;;;5108529;28;20295;-73
2023/11/04 09:50:16;;;;;;;;;;;10.60;90.60;;;;;;5090026;28;19980;-74
2023/11/04 09:52:43;;;;;;;;;;;10.60;90.40;;;;;;5090721;28;20347;-74
2023/11/04 09:55:09;;;;;;;;;;;10.60;90.40;;;;;;5091729;28;19908;-68
2023/11/04 09:57:36;;;;;;;;;;;10.60;90.40;;;;;;5109060;28;19924;-71
2023/11/04 10:00:03;;;;;;;;;;;10.60;90.50;;;;;;5109569;28;19968;-73
2023/11/04 10:02:29;;;;;;;;;;;10.60;90.40;;;;;;5109762;28;20306;-77
2023/11/04 10:04:54;;;;;;;;;;;10.60;90.40;;;;;;5110215;28;19908;-76
2023/11/04 10:07:21;;;;;;;;;;;10.50;90.40;;;;;;5088075;28;20372;-75
2023/11/04 10:09:48;;;;;;;;;;;10.50;90.40;;;;;;5110090;28;19947;-76
2023/11/04 10:12:14;;;;;;;;;;;10.50;90.50;;;;;;5086058;28;19919;-75
2023/11/04 10:14:40;;;;;;;;;;;10.50;90.50;;;;;;5110021;28;19918;-75
2023/11/04 10:17:06;;;;;;;;;;;10.60;90.50;;;;;;5084623;28;19912;-75
2023/11/04 10:19:33;;;;;;;;;;;10.60;90.60;;;;;;5074779;28;19923;-76
2023/11/04 10:21:59;;;;;;;;;;;10.60;90.50;;;;;;5091455;28;20556;-74
2023/11/04 10:24:25;;;;;;;;;;;10.70;90.50;;;;;;5091403;28;19915;-75
2023/11/04 10:26:50;;;;;;;;;;;10.70;90.50;;;;;;5109911;28;19937;-77
2023/11/04 10:29:16;;;;;;;;;;;10.80;90.60;;;;;;5110822;28;19907;-80
2023/11/04 10:31:42;;;;;;;;;;;10.90;90.80;;;;;;5111776;28;20510;-79
2023/11/04 10:34:09;;;;;;;;;;;10.90;90.40;;;;;;5092495;28;20268;-79
2023/11/04 10:36:37;;;;;;;;;;;10.90;90.50;;;;;;5110449;28;19939;-79
2023/11/04 10:39:04;;;;;;;;;;;10.90;90.50;;;;;;5110587;28;20236;-67
2023/11/04 10:41:30;;;;;;;;;;;11.00;90.50;;;;;;5110425;28;20278;-79
2023/11/04 10:43:59;;;;;;;;;;;11.00;90.40;;;;;;5091996;28;19998;-78
2023/11/04 10:46:36;;;;;;;;;;;11.00;90.50;;;;;;5108874;28;19916;-78
2023/11/04 10:49:04;;;;;;;;;;;11.10;90.50;;;;;;5092339;28;19953;-78
2023/11/04 10:51:34;;;;;;;;;;;11.10;90.40;;;;;;5110326;28;19922;-81
2023/11/04 10:54:05;;;;;;;;;;;11.10;90.40;;;;;;5091820;28;19961;-80
2023/11/04 10:56:33;;;;;;;;;;;11.20;90.40;;;;;;5110288;28;19982;-78
2023/11/04 10:59:12;;;;;;;;;;;11.20;90.40;;;;;;5110377;28;19912;-76
2023/11/04 11:01:41;;;;;;;;;;;11.20;90.40;;;;;;5110112;28;19939;-73
2023/11/04 11:04:08;;;;;;;;;;;11.30;90.50;;;;;;5110166;28;19911;-78
2023/11/04 11:06:34;;;;;;;;;;;11.30;90.50;;;;;;5109816;28;19940;-78
2023/11/04 11:09:04;;;;;;;;;;;11.40;90.50;;;;;;5090942;28;19977;-81
2023/11/04 11:11:34;;;;;;;;;;;11.40;90.40;;;;;;5091751;28;20352;-76
2023/11/04 11:14:00;;;;;;;;;;;11.50;90.40;;;;;;5109401;28;19908;-75
2023/11/04 11:16:25;;;;;;;;;;;11.50;90.40;;;;;;5091065;28;19918;-76
2023/11/04 11:18:52;;;;;;;;;;;11.50;90.40;;;;;;5109326;28;19919;-78
2023/11/04 11:21:20;;;;;;;;;;;11.50;90.50;;;;;;5091372;28;20008;-78
2023/11/04 11:23:47;;;;;;;;;;;11.50;90.50;;;;;;5110019;28;19912;-77
2023/11/04 11:26:13;;;;;;;;;;;11.50;90.50;;;;;;5108355;28;20009;-79
2023/11/04 11:28:40;;;;;;;;;;;11.60;90.50;;;;;;5110094;28;19921;-78
2023/11/04 11:31:07;;;;;;;;;;;11.60;90.50;;;;;;5113142;28;19994;-78
2023/11/04 11:33:33;;;;;;;;;;;11.60;90.60;;;;;;5113236;28;19919;-79
2023/11/04 11:36:00;;;;;;;;;;;11.70;90.50;;;;;;5094520;28;19924;-78
2023/11/04 11:38:26;;;;;;;;;;;11.70;90.60;;;;;;5112895;28;19949;-78
2023/11/04 11:40:51;;;;;;;;;;;11.70;90.60;;;;;;5112644;28;19960;-77
2023/11/04 11:43:20;;;;;;;;;;;11.80;90.60;;;;;;5094322;28;19996;-79
2023/11/04 11:45:47;;;;;;;;;;;11.80;90.60;;;;;;5113313;28;20018;-77
2023/11/04 11:48:16;;;;;;;;;;;11.90;90.60;;;;;;5094810;28;20216;-78
2023/11/04 11:50:43;;;;;;;;;;;11.80;90.60;;;;;;5094442;28;19915;-79
2023/11/04 11:53:08;;;;;;;;;;;11.80;90.60;;;;;;5094116;28;19968;-77
2023/11/04 11:55:38;;;;;;;;;;;11.80;90.70;;;;;;5094464;28;19943;-78
2023/11/04 11:58:04;;;;;;;;;;;11.80;90.70;;;;;;5113054;28;20359;-79
2023/11/04 12:00:30;;;;;;;;;;;11.90;90.80;;;;;;5112830;28;19918;-79
2023/11/04 12:02:56;;;;;;;;;;;11.90;90.70;;;;;;5112568;28;19908;-79
2023/11/04 12:05:22;;;;;;;;;;;12.00;90.80;;;;;;5076994;28;19981;-79
2023/11/04 12:07:47;;;;;;;;;;;12.10;90.80;;;;;;5112288;28;19919;-79
2023/11/04 12:10:13;;;;;;;;;;;12.10;90.80;;;;;;5113128;28;19916;-79
2023/11/04 12:12:40;;;;;;;;;;;12.20;90.90;;;;;;5112552;28;20360;-79
2023/11/04 12:15:10;;;;;;;;;;;12.40;91.00;;;;;;5111386;28;19907;-80
2023/11/04 12:17:35;;;;;;;;;;;12.60;91.00;;;;;;5111113;28;20228;-77
2023/11/04 12:20:01;;;;;;;;;;;12.70;91.30;;;;;;5093290;28;19912;-74
2023/11/04 12:22:27;;;;;;;;;;;13.10;91.30;;;;;;5113138;28;19912;-76
2023/11/04 12:24:53;;;;;;;;;;;13.40;91.30;;;;;;5094094;28;19916;-76
2023/11/04 12:27:19;;;;;;;;;;;13.70;91.20;;;;;;5077560;28;20381;-80
2023/11/04 12:29:44;;;;;;;;;;;13.80;91.10;;;;;;5093801;28;19911;-75
2023/11/04 12:32:19;;;;;;;;;;;14.00;91.20;;;;;;5111576;28;19916;-81
2023/11/04 12:34:49;;;;;;;;;;;14.10;91.10;;;;;;5112214;28;19908;-78
2023/11/04 12:37:15;;;;;;;;;;;14.10;90.90;;;;;;5112393;28;19930;-78
2023/11/04 12:39:40;;;;;;;;;;;14.00;90.90;;;;;;5093809;28;20358;-79
2023/11/04 12:42:08;;;;;;;;;;;13.90;91.00;;;;;;5110648;28;20317;-77
2023/11/04 12:44:36;;;;;;;;;;;13.80;91.00;;;;;;5111453;28;19907;-67
2023/11/04 12:47:01;;;;;;;;;;;13.70;91.10;;;;;;5111742;28;19999;-79
2023/11/04 12:49:27;;;;;;;;;;;13.60;91.10;;;;;;5113025;28;19952;-76
2023/11/04 12:51:52;;;;;;;;;;;13.60;91.00;;;;;;5111553;28;19916;-79
2023/11/04 12:54:18;;;;;;;;;;;13.50;91.00;;;;;;5111747;28;19916;-79
2023/11/04 12:56:44;;;;;;;;;;;13.40;91.00;;;;;;5111399;28;19963;-79
2023/11/04 12:59:10;;;;;;;;;;;13.40;91.00;;;;;;5110540;28;19912;-77
2023/11/04 13:01:35;;;;;;;;;;;13.40;91.10;;;;;;5111430;28;19911;-78
2023/11/04 13:04:01;;;;;;;;;;;13.50;91.30;;;;;;5111757;28;19911;-78
2023/11/04 13:06:28;;;;;;;;;;;13.50;91.20;;;;;;5111311;28;20395;-77
2023/11/04 13:08:53;;;;;;;;;;;13.60;91.20;;;;;;5111157;28;19912;-76
2023/11/04 13:11:19;;;;;;;;;;;13.60;91.20;;;;;;5111113;28;19911;-74
2023/11/04 13:13:45;;;;;;;;;;;13.60;91.00;;;;;;5110791;28;19965;-68
2023/11/04 13:16:10;;;;;;;;;;;13.50;91.00;;;;;;5092803;28;19912;-75
2023/11/04 13:18:36;;;;;;;;;;;13.40;91.10;;;;;;5094466;28;20348;-75
2023/11/04 13:21:02;;;;;;;;;;;13.30;91.30;;;;;;5113054;28;19916;-79
2023/11/04 13:23:28;;;;;;;;;;;13.30;91.30;;;;;;5113929;28;19976;-82
2023/11/04 13:25:53;;;;;;;;;;;13.30;91.30;;;;;;5080684;28;19965;-79
2023/11/04 13:28:19;;;;;;;;;;;13.30;91.20;;;;;;5097126;28;20387;-80
2023/11/04 13:30:44;;;;;;;;;;;13.20;91.10;;;;;;5092801;28;19912;-78
2023/11/04 13:33:10;;;;;;;;;;;13.10;91.00;;;;;;5092244;28;20372;-80
2023/11/04 13:35:35;;;;;;;;;;;13.00;90.90;;;;;;5091159;28;19988;-75
2023/11/04 13:38:01;;;;;;;;;;;12.80;90.90;;;;;;5090836;28;19912;-78
2023/11/04 13:40:27;;;;;;;;;;;12.60;90.80;;;;;;5074327;28;19948;-76
2023/11/04 13:42:52;;;;;;;;;;;12.40;90.90;;;;;;5091700;28;19916;-75
2023/11/04 13:45:19;;;;;;;;;;;12.30;91.00;;;;;;5072514;28;20360;-79
2023/11/04 13:47:45;;;;;;;;;;;12.20;91.10;;;;;;5091407;28;19953;-77
2023/11/04 13:50:10;;;;;;;;;;;12.20;91.20;;;;;;5077583;28;20268;-76
2023/11/04 13:52:36;;;;;;;;;;;12.20;91.30;;;;;;5091312;28;19973;-79
2023/11/04 13:55:01;;;;;;;;;;;12.30;91.30;;;;;;5091848;28;19995;-76
2023/11/04 13:57:27;;;;;;;;;;;12.40;91.20;;;;;;5091741;28;19998;-77
2023/11/04 13:59:53;;;;;;;;;;;12.40;91.10;;;;;;5074205;28;19923;-79
2023/11/04 14:02:18;;;;;;;;;;;12.50;91.10;;;;;;5105165;28;19923;-80
2023/11/04 14:04:44;;;;;;;;;;;12.50;91.00;;;;;;5114594;28;19999;-77
2023/11/04 14:07:10;;;;;;;;;;;12.50;90.90;;;;;;5111764;28;19965;-78
2023/11/04 14:09:35;;;;;;;;;;;12.50;91.00;;;;;;5114010;28;19920;-77
2023/11/04 14:12:01;;;;;;;;;;;12.40;91.00;;;;;;5095348;28;19911;-77
2023/11/04 14:14:27;;;;;;;;;;;12.40;91.10;;;;;;5114702;28;19918;-80
2023/11/04 14:16:52;;;;;;;;;;;12.50;91.10;;;;;;5094407;28;19916;-63